createdAt,value
2023-10-13T00:02:04.448Z,29.60
2023-10-13T00:04:36.834Z,30.10
2023-10-13T00:07:05.808Z,32.50
2023-10-13T00:09:33.892Z,30.40
2023-10-13T00:12:01.924Z,25.90
2023-10-13T00:14:36.293Z,31.80
2023-10-13T00:17:06.681Z,31.30
2023-10-13T00:19:48.110Z,28.00
2023-10-13T00:22:17.678Z,27.90
2023-10-13T00:24:49.352Z,24.90
2023-10-13T00:27:28.898Z,30.60
2023-10-13T00:30:23.636Z,25.90
2023-10-13T00:32:57.761Z,25.30
2023-10-13T00:35:30.268Z,26.80
2023-10-13T00:38:04.959Z,22.30
2023-10-13T00:40:33.916Z,23.90
2023-10-13T00:43:21.331Z,21.50
2023-10-13T00:45:59.342Z,21.10
2023-10-13T00:48:35.895Z,19.00
2023-10-13T00:51:08.381Z,19.10
2023-10-13T00:53:42.029Z,24.40
2023-10-13T00:56:28.586Z,24.00
2023-10-13T00:59:00.514Z,22.80
2023-10-13T01:01:35.238Z,23.90
2023-10-13T01:04:04.662Z,24.70
2023-10-13T01:06:33.292Z,27.40
2023-10-13T01:09:14.017Z,26.70
2023-10-13T01:11:53.438Z,24.50
2023-10-13T01:14:24.997Z,22.30
2023-10-13T01:16:54.196Z,23.00
2023-10-13T01:19:29.200Z,23.90
2023-10-13T01:22:05.199Z,24.40
2023-10-13T01:24:36.411Z,24.60
2023-10-13T01:27:21.725Z,19.50
2023-10-13T01:29:52.987Z,21.00
2023-10-13T01:32:23.941Z,21.60
2023-10-13T01:34:56.735Z,23.90
2023-10-13T01:37:24.894Z,22.30
2023-10-13T01:39:53.158Z,18.80
2023-10-13T01:42:23.585Z,27.60
2023-10-13T01:44:52.556Z,22.20
2023-10-13T01:47:22.069Z,18.80
2023-10-13T01:49:51.661Z,22.30
2023-10-13T01:52:20.469Z,23.10
2023-10-13T01:54:50.776Z,20.80
2023-10-13T01:57:19.492Z,21.80
2023-10-13T01:59:50.010Z,18.40
2023-10-13T02:02:31.046Z,19.00
2023-10-13T02:05:02.492Z,21.10
2023-10-13T02:07:36.251Z,21.90
2023-10-13T02:12:56.794Z,24.40
2023-10-13T02:15:27.731Z,21.60
2023-10-13T02:17:56.793Z,23.00
2023-10-13T02:20:25.617Z,23.40
2023-10-13T02:22:53.621Z,22.10
2023-10-13T02:25:37.156Z,21.60
2023-10-13T02:28:15.045Z,25.80
2023-10-13T02:30:50.139Z,24.80
2023-10-13T02:33:30.673Z,28.30
2023-10-13T02:36:00.262Z,20.30
2023-10-13T02:38:48.501Z,24.40
2023-10-13T02:41:28.883Z,22.90
2023-10-13T02:43:57.462Z,21.60
2023-10-13T02:46:30.063Z,22.40
2023-10-13T02:49:03.807Z,16.30
2023-10-13T02:51:36.914Z,26.40
2023-10-13T02:54:13.030Z,20.30
2023-10-13T02:57:10.227Z,20.40
2023-10-13T02:59:41.849Z,24.00
2023-10-13T03:02:19.760Z,21.60
2023-10-13T03:05:09.805Z,19.30
2023-10-13T03:07:38.000Z,18.90
2023-10-13T03:10:12.805Z,22.40
2023-10-13T03:12:41.626Z,23.90
2023-10-13T03:15:16.033Z,23.00
2023-10-13T03:17:45.596Z,23.10
2023-10-13T03:20:17.325Z,20.70
2023-10-13T03:22:48.340Z,21.10
2023-10-13T03:25:30.787Z,27.30
2023-10-13T03:28:02.063Z,19.20
2023-10-13T03:30:36.054Z,19.30
2023-10-13T03:33:09.486Z,23.60
2023-10-13T03:35:43.629Z,20.00
2023-10-13T03:38:20.933Z,22.40
2023-10-13T03:41:12.061Z,20.60
2023-10-13T03:44:12.164Z,24.70
2023-10-13T03:46:42.440Z,26.60
2023-10-13T03:49:14.237Z,23.10
2023-10-13T03:51:42.412Z,21.40
2023-10-13T03:54:10.508Z,20.60
2023-10-13T03:56:41.791Z,24.10
2023-10-13T03:59:11.275Z,27.30
2023-10-13T04:01:45.205Z,26.80
2023-10-13T04:04:16.024Z,20.90
2023-10-13T04:06:46.901Z,24.20
2023-10-13T04:09:30.737Z,21.90
2023-10-13T04:17:17.184Z,25.50
2023-10-13T04:20:08.402Z,25.50
2023-10-13T04:22:47.450Z,23.40
2023-10-13T04:25:38.781Z,31.10
2023-10-13T04:28:17.660Z,23.90
2023-10-13T04:30:53.207Z,26.00
2023-10-13T04:33:33.254Z,26.20
2023-10-13T04:36:15.653Z,27.90
2023-10-13T04:38:57.933Z,27.20
2023-10-13T04:41:33.526Z,26.00
2023-10-13T04:44:24.598Z,23.60
2023-10-13T04:46:53.300Z,32.50
2023-10-13T04:49:30.123Z,33.30
2023-10-13T04:52:00.434Z,26.70
2023-10-13T04:54:46.456Z,25.70
2023-10-13T04:57:24.845Z,28.40
2023-10-13T05:00:12.399Z,26.50
2023-10-13T05:02:57.300Z,32.50
2023-10-13T05:05:43.851Z,31.00
2023-10-13T05:08:30.696Z,28.40
2023-10-13T05:11:17.295Z,30.40
2023-10-13T05:14:03.638Z,29.80
2023-10-13T05:16:50.135Z,34.60
2023-10-13T05:19:36.908Z,28.00
2023-10-13T05:22:23.772Z,30.00
2023-10-13T05:25:15.271Z,32.50
2023-10-13T05:28:02.897Z,32.60
2023-10-13T05:30:51.893Z,28.00
2023-10-13T05:33:38.164Z,35.20
2023-10-13T05:36:30.601Z,29.60
2023-10-13T05:39:17.172Z,30.90
2023-10-13T05:42:03.673Z,29.30
2023-10-13T05:44:35.021Z,29.90
2023-10-13T05:47:23.289Z,39.30
2023-10-13T05:49:53.942Z,30.00
2023-10-13T05:52:41.881Z,36.50
2023-10-13T05:55:28.857Z,35.70
2023-10-13T05:58:15.698Z,41.80
2023-10-13T06:01:02.156Z,37.40
2023-10-13T06:03:49.014Z,37.10
2023-10-13T06:06:35.666Z,40.70
2023-10-13T06:09:22.491Z,42.20
2023-10-13T06:12:09.537Z,38.10
2023-10-13T06:14:56.454Z,39.90
2023-10-13T06:17:43.256Z,42.80
2023-10-13T06:20:29.859Z,47.70
2023-10-13T06:23:16.517Z,65.00
2023-10-13T06:26:02.977Z,60.00
2023-10-13T06:28:43.100Z,51.70
2023-10-13T06:31:27.598Z,53.00
2023-10-13T06:33:57.041Z,50.60
2023-10-13T06:36:26.913Z,53.00
2023-10-13T06:39:17.624Z,56.70
2023-10-13T06:41:45.664Z,55.50
2023-10-13T06:44:17.162Z,63.00
2023-10-13T06:46:45.808Z,51.00
2023-10-13T06:49:15.453Z,54.70
2023-10-13T06:51:44.001Z,58.70
2023-10-13T06:54:20.649Z,57.90
2023-10-13T06:56:53.487Z,50.90
2023-10-13T06:59:27.779Z,56.80
2023-10-13T07:02:12.535Z,55.10
2023-10-13T07:04:49.670Z,53.50
2023-10-13T07:07:17.871Z,55.00
2023-10-13T07:09:56.422Z,61.40
2023-10-13T07:12:27.520Z,60.60
2023-10-13T07:15:04.988Z,73.40
2023-10-13T07:17:39.247Z,57.50
2023-10-13T07:20:27.135Z,52.00
2023-10-13T07:23:04.752Z,49.80
2023-10-13T07:25:41.325Z,60.10
2023-10-13T07:28:09.924Z,59.00
2023-10-13T07:30:50.657Z,51.00
2023-10-13T07:33:21.364Z,62.90
2023-10-13T07:36:17.108Z,60.70
2023-10-13T07:38:58.834Z,60.40
2023-10-13T07:41:34.961Z,66.70
2023-10-13T07:44:05.981Z,67.90
2023-10-13T07:46:36.793Z,65.80
2023-10-13T07:49:12.032Z,65.70
2023-10-13T07:51:45.496Z,66.60
2023-10-13T07:54:23.005Z,62.80
2023-10-13T07:56:52.005Z,72.50
2023-10-13T07:59:23.517Z,64.10
2023-10-13T08:02:13.627Z,54.60
2023-10-13T08:04:41.878Z,59.30
2023-10-13T08:07:15.657Z,60.50
2023-10-13T08:09:52.665Z,64.00
2023-10-13T08:12:22.827Z,51.90
2023-10-13T08:15:10.459Z,61.30
2023-10-13T08:17:38.429Z,64.30
2023-10-13T08:20:12.851Z,70.10
2023-10-13T08:22:47.862Z,64.50
2023-10-13T08:25:25.950Z,63.60
2023-10-13T08:28:12.243Z,102.50
2023-10-13T08:30:55.323Z,65.50
2023-10-13T08:33:27.857Z,66.20
2023-10-13T08:35:56.354Z,66.90
2023-10-13T08:38:31.789Z,70.00
2023-10-13T08:41:19.630Z,78.10
2023-10-13T08:43:54.829Z,71.10
2023-10-13T08:46:27.275Z,70.00
2023-10-13T08:49:15.322Z,67.60
2023-10-13T08:52:06.044Z,67.60
2023-10-13T08:54:40.088Z,67.90
2023-10-13T08:57:28.299Z,69.10
2023-10-13T08:59:56.736Z,67.90
2023-10-13T09:03:00.190Z,60.00
2023-10-13T09:06:02.090Z,66.80
2023-10-13T09:08:37.293Z,72.40
2023-10-13T09:11:15.160Z,58.80
2023-10-13T09:13:46.196Z,50.40
2023-10-13T09:16:38.271Z,98.10
2023-10-13T09:19:06.444Z,57.30
2023-10-13T09:21:41.491Z,45.50
2023-10-13T09:24:20.012Z,49.80
2023-10-13T09:26:50.592Z,43.60
2023-10-13T09:29:20.112Z,41.50
2023-10-13T09:32:01.085Z,45.00
2023-10-13T09:34:30.655Z,48.10
2023-10-13T09:37:00.237Z,49.70
2023-10-13T09:39:31.414Z,46.80
2023-10-13T09:42:00.642Z,42.50
2023-10-13T09:44:31.579Z,51.30
2023-10-13T09:47:09.572Z,48.60
2023-10-13T09:49:50.337Z,52.80
2023-10-13T09:52:21.685Z,55.00
2023-10-13T09:55:35.935Z,52.20
2023-10-13T09:58:14.917Z,49.80
2023-10-13T10:00:59.610Z,54.20
2023-10-13T10:03:36.801Z,41.40
2023-10-13T10:06:06.369Z,48.40
2023-10-13T10:08:36.266Z,49.50
2023-10-13T10:11:57.893Z,48.90
2023-10-13T10:14:40.926Z,40.10
2023-10-13T10:17:10.336Z,52.60
2023-10-13T10:19:56.633Z,43.80
2023-10-13T10:22:37.972Z,45.30
2023-10-13T10:25:26.518Z,43.00
2023-10-13T10:27:58.540Z,39.40
2023-10-13T10:30:31.263Z,42.30
2023-10-13T10:33:02.744Z,34.20
2023-10-13T10:35:31.111Z,34.60
2023-10-13T10:38:12.868Z,39.10
2023-10-13T10:41:05.794Z,40.90
2023-10-13T10:43:44.385Z,41.80
2023-10-13T10:46:41.588Z,40.00
2023-10-13T10:49:09.928Z,47.50
2023-10-13T10:51:45.926Z,42.10
2023-10-13T10:54:21.350Z,38.50
2023-10-13T10:56:55.165Z,41.90
2023-10-13T10:59:26.416Z,41.90
2023-10-13T11:01:54.568Z,41.90
2023-10-13T11:04:29.539Z,39.40
2023-10-13T11:06:59.322Z,41.90
2023-10-13T11:09:47.205Z,41.80
2023-10-13T11:12:16.647Z,40.10
2023-10-13T11:14:48.948Z,38.90
2023-10-13T11:17:39.856Z,42.90
2023-10-13T11:20:17.520Z,36.40
2023-10-13T11:22:49.285Z,42.30
2023-10-13T11:25:36.994Z,31.90
2023-10-13T11:28:19.488Z,31.70
2023-10-13T11:30:52.854Z,35.10
2023-10-13T11:33:30.294Z,36.40
2023-10-13T11:36:02.800Z,39.20
2023-10-13T11:38:55.646Z,41.90
2023-10-13T11:41:23.774Z,31.00
2023-10-13T11:43:53.092Z,35.50
2023-10-13T11:46:38.951Z,35.50
2023-10-13T11:49:28.575Z,39.00
2023-10-13T11:52:09.785Z,37.30
2023-10-13T11:54:43.060Z,28.50
2023-10-13T11:57:11.105Z,28.50
2023-10-13T11:59:45.529Z,30.60
2023-10-13T12:02:28.926Z,32.10
2023-10-13T12:04:58.352Z,28.40
2023-10-13T12:07:45.656Z,30.10
2023-10-13T12:10:18.172Z,26.80
2023-10-13T12:12:47.897Z,28.70
2023-10-13T12:15:27.212Z,27.90
2023-10-13T12:17:59.591Z,27.10
2023-10-13T12:20:34.137Z,26.40
2023-10-13T12:23:16.738Z,32.90
2023-10-13T12:26:01.765Z,33.00
2023-10-13T12:28:32.491Z,31.10
2023-10-13T12:31:09.154Z,33.40
2023-10-13T12:33:42.167Z,27.10
2023-10-13T12:36:22.580Z,31.10
2023-10-13T12:38:50.450Z,30.10
2023-10-13T12:41:40.088Z,28.40
2023-10-13T12:44:26.731Z,25.70
2023-10-13T12:47:13.854Z,24.90
2023-10-13T12:49:42.237Z,27.20
2023-10-13T12:52:33.615Z,27.00
2023-10-13T12:55:08.336Z,26.80
2023-10-13T12:57:44.397Z,31.20
2023-10-13T13:00:24.146Z,30.20
2023-10-13T13:02:53.903Z,21.00
2023-10-13T13:05:24.217Z,23.40
2023-10-13T13:07:55.363Z,23.80
2023-10-13T13:10:36.746Z,22.70
2023-10-13T13:13:06.540Z,21.10
2023-10-13T13:15:34.958Z,21.80
2023-10-13T13:18:11.825Z,22.20
2023-10-13T13:20:55.873Z,21.20
2023-10-13T13:23:32.435Z,26.70
2023-10-13T13:26:00.481Z,20.70
2023-10-13T13:28:38.991Z,24.30
2023-10-13T13:31:09.373Z,25.60
2023-10-13T13:33:39.859Z,21.50
2023-10-13T13:36:07.976Z,22.80
2023-10-13T13:38:36.029Z,21.00
2023-10-13T13:41:05.091Z,19.70
2023-10-13T13:43:39.573Z,21.50
2023-10-13T13:46:12.156Z,21.00
2023-10-13T13:48:42.181Z,20.70
2023-10-13T13:51:16.916Z,19.60
2023-10-13T13:53:51.511Z,22.50
2023-10-13T13:56:20.323Z,19.70
2023-10-13T13:58:57.370Z,20.40
2023-10-13T14:01:28.073Z,21.00
2023-10-13T14:04:04.188Z,20.10
2023-10-13T14:06:33.888Z,22.30
2023-10-13T14:09:04.947Z,23.10
2023-10-13T14:11:39.911Z,23.70
2023-10-13T14:14:30.098Z,26.10
2023-10-13T14:17:08.010Z,21.10
2023-10-13T14:19:41.979Z,21.70
2023-10-13T14:22:13.686Z,20.20
2023-10-13T14:24:47.181Z,26.50
2023-10-13T14:27:19.656Z,22.80
2023-10-13T14:29:48.503Z,27.40
2023-10-13T14:32:16.854Z,20.50
2023-10-13T14:34:47.301Z,29.90
2023-10-13T14:37:15.383Z,25.20
2023-10-13T14:39:43.298Z,21.80
2023-10-13T14:42:11.274Z,23.40
2023-10-13T14:44:39.378Z,25.80
2023-10-13T14:47:10.233Z,24.50
2023-10-13T14:49:38.529Z,24.70
2023-10-13T14:52:06.717Z,26.20
2023-10-13T14:54:34.954Z,22.60
2023-10-13T14:57:04.010Z,26.40
2023-10-13T14:59:34.585Z,22.10
2023-10-13T15:02:03.247Z,29.80
2023-10-13T15:04:34.675Z,32.10
2023-10-13T15:07:03.712Z,28.10
2023-10-13T15:09:31.735Z,24.30
2023-10-13T15:12:00.005Z,33.40
2023-10-13T15:14:27.967Z,27.60
2023-10-13T15:17:01.670Z,31.40
2023-10-13T15:19:31.298Z,32.20
2023-10-13T15:22:00.788Z,32.20
2023-10-13T15:24:32.679Z,34.20
2023-10-13T15:27:09.618Z,36.90
2023-10-13T15:29:38.443Z,27.00
2023-10-13T15:32:27.494Z,23.40
2023-10-13T15:34:57.078Z,28.40
2023-10-13T15:37:26.887Z,28.00
2023-10-13T15:39:56.422Z,33.70
2023-10-13T15:42:24.563Z,32.00
2023-10-13T15:44:52.957Z,22.70
2023-10-13T15:49:51.897Z,37.00
2023-10-13T15:52:20.216Z,36.10
2023-10-13T15:54:48.625Z,27.30
2023-10-13T15:57:18.137Z,26.60
2023-10-13T15:59:47.681Z,33.00
2023-10-13T16:02:21.073Z,32.20
2023-10-13T16:04:49.410Z,32.50
2023-10-13T16:07:19.189Z,34.30
2023-10-13T16:09:47.784Z,33.80
2023-10-13T16:12:16.711Z,36.70
2023-10-13T16:14:44.836Z,33.00
2023-10-13T16:17:12.747Z,28.70
2023-10-13T16:19:40.970Z,36.90
2023-10-13T16:22:11.071Z,35.90
2023-10-13T16:24:39.316Z,29.10
2023-10-13T16:27:07.731Z,34.70
2023-10-13T16:29:35.774Z,35.90
2023-10-13T16:32:04.038Z,34.80
2023-10-13T16:34:32.001Z,36.20
2023-10-13T16:37:00.264Z,34.90
2023-10-13T16:39:29.608Z,33.90
2023-10-13T16:41:57.776Z,31.10
2023-10-13T16:44:28.269Z,34.00
2023-10-13T16:47:01.837Z,28.90
2023-10-13T16:49:31.543Z,36.80
2023-10-13T16:52:01.673Z,31.00
2023-10-13T16:54:30.328Z,37.40
2023-10-13T16:56:58.464Z,36.40
2023-10-13T16:59:27.394Z,34.20
2023-10-13T17:01:56.264Z,39.10
2023-10-13T17:04:28.280Z,31.90
2023-10-13T17:06:56.865Z,35.00
2023-10-13T17:09:25.670Z,34.70
2023-10-13T17:11:53.932Z,37.70
2023-10-13T17:14:22.010Z,38.70
2023-10-13T17:16:50.279Z,36.50
2023-10-13T17:19:18.289Z,40.00
2023-10-13T17:21:48.362Z,41.00
2023-10-13T17:24:16.820Z,40.20
2023-10-13T17:26:44.772Z,33.80
2023-10-13T17:29:12.945Z,31.30
2023-10-13T17:31:40.895Z,29.30
2023-10-13T17:34:08.845Z,28.90
2023-10-13T17:36:39.500Z,35.70
2023-10-13T17:39:10.183Z,34.30
2023-10-13T17:41:38.075Z,42.70
2023-10-13T17:44:09.068Z,44.10
2023-10-13T17:46:41.100Z,44.10
2023-10-13T17:49:09.466Z,42.00
2023-10-13T17:51:37.588Z,40.50
2023-10-13T17:54:07.024Z,42.80
2023-10-13T17:56:34.935Z,46.70
2023-10-13T17:59:03.006Z,36.90
2023-10-13T18:01:33.349Z,36.30
2023-10-13T18:04:05.855Z,43.10
2023-10-13T18:06:38.206Z,43.70
2023-10-13T18:09:12.217Z,43.40
2023-10-13T18:11:43.957Z,48.00
2023-10-13T18:14:13.074Z,45.60
2023-10-13T18:16:42.668Z,40.70
2023-10-13T18:19:11.090Z,42.60
2023-10-13T18:21:39.100Z,46.20
2023-10-13T18:24:09.513Z,49.00
2023-10-13T18:26:37.748Z,42.20
2023-10-13T18:29:05.742Z,49.90
2023-10-13T18:31:34.829Z,48.60
2023-10-13T18:34:03.727Z,40.00
2023-10-13T18:36:32.834Z,43.90
2023-10-13T18:39:03.116Z,43.30
2023-10-13T18:41:34.013Z,47.30
2023-10-13T18:44:02.086Z,45.40
2023-10-13T18:46:31.317Z,42.50
2023-10-13T18:48:59.861Z,46.00
2023-10-13T18:51:28.098Z,46.80
2023-10-13T18:53:58.107Z,49.60
2023-10-13T18:56:26.348Z,54.20
2023-10-13T18:58:57.817Z,49.20
2023-10-13T19:01:30.966Z,45.10
2023-10-13T19:04:01.280Z,46.40
2023-10-13T19:06:34.918Z,39.80
2023-10-13T19:09:06.873Z,48.90
2023-10-13T19:11:37.945Z,40.60
2023-10-13T19:14:11.392Z,38.60
2023-10-13T19:16:43.146Z,40.30
2023-10-13T19:19:11.246Z,36.60
2023-10-13T19:21:39.316Z,43.90
2023-10-13T19:24:08.262Z,37.10
2023-10-13T19:26:38.393Z,36.30
2023-10-13T19:29:07.016Z,43.10
2023-10-13T19:31:36.177Z,43.40
2023-10-13T19:34:06.406Z,39.40
2023-10-13T19:36:35.704Z,43.60
2023-10-13T19:39:08.997Z,40.90
2023-10-13T19:41:38.170Z,38.80
2023-10-13T19:44:09.282Z,40.20
2023-10-13T19:46:37.408Z,41.80
2023-10-13T19:49:06.406Z,41.40
2023-10-13T19:51:35.431Z,42.10
2023-10-13T19:54:04.423Z,33.10
2023-10-13T19:56:33.705Z,45.30
2023-10-13T19:59:02.657Z,42.50
2023-10-13T20:01:35.007Z,42.10
2023-10-13T20:04:08.482Z,41.20
2023-10-13T20:06:37.015Z,42.50
2023-10-13T20:09:10.288Z,44.30
2023-10-13T20:11:39.395Z,41.90
2023-10-13T20:14:10.879Z,37.00
2023-10-13T20:16:39.065Z,38.60
2023-10-13T20:19:07.232Z,37.80
2023-10-13T20:21:37.021Z,40.80
2023-10-13T20:24:05.861Z,37.80
2023-10-13T20:26:44.112Z,38.80
2023-10-13T20:29:17.319Z,39.90
2023-10-13T20:31:49.143Z,43.30
2023-10-13T20:34:24.388Z,106.40
2023-10-13T20:36:56.072Z,257.60
2023-10-13T20:39:42.822Z,301.90
2023-10-13T20:42:10.914Z,181.70
2023-10-13T20:44:39.368Z,107.80
2023-10-13T20:47:08.189Z,94.90
2023-10-13T20:49:36.348Z,85.00
2023-10-13T20:52:06.432Z,66.20
2023-10-13T20:54:34.890Z,78.00
2023-10-13T20:57:09.130Z,127.30
2023-10-13T20:59:40.814Z,148.50
2023-10-13T21:02:08.953Z,156.10
2023-10-13T21:04:36.979Z,215.00
2023-10-13T21:07:06.006Z,154.00
2023-10-13T21:09:34.305Z,371.20
2023-10-13T21:12:06.458Z,716.40
2023-10-13T21:14:37.465Z,567.00
2023-10-13T21:17:05.917Z,363.00
2023-10-13T21:19:37.613Z,210.70
2023-10-13T21:22:09.360Z,86.70
2023-10-13T21:24:38.090Z,70.70
2023-10-13T21:27:06.181Z,56.70
2023-10-13T21:29:34.421Z,50.80
2023-10-13T21:32:02.958Z,72.80
2023-10-13T21:34:31.907Z,85.40
2023-10-13T21:37:01.077Z,113.50
2023-10-13T21:39:45.392Z,85.60
2023-10-13T21:42:16.384Z,75.90
2023-10-13T21:44:44.476Z,71.10
2023-10-13T21:47:12.962Z,63.50
2023-10-13T21:49:42.155Z,65.40
2023-10-13T21:52:10.465Z,47.30
2023-10-13T21:54:39.104Z,41.70
2023-10-13T21:57:07.016Z,44.20
2023-10-13T21:59:34.854Z,39.60
2023-10-13T22:02:03.027Z,42.80
2023-10-13T22:04:32.808Z,92.90
2023-10-13T22:07:00.898Z,134.30
2023-10-13T22:09:28.937Z,97.50
2023-10-13T22:11:57.058Z,191.10
2023-10-13T22:14:25.091Z,231.50
2023-10-13T22:16:53.126Z,722.10
2023-10-13T22:19:21.293Z,588.20
2023-10-13T22:21:53.253Z,551.70
2023-10-13T22:24:22.210Z,193.40
2023-10-13T22:26:50.331Z,277.80
2023-10-13T22:29:18.387Z,336.70
2023-10-13T22:31:46.587Z,242.10
2023-10-13T22:34:19.305Z,143.50
2023-10-13T22:37:02.798Z,188.50
2023-10-13T22:39:34.852Z,149.10
2023-10-13T22:42:03.749Z,105.50
2023-10-13T22:44:33.897Z,93.90
2023-10-13T22:47:01.937Z,102.30
2023-10-13T22:49:33.538Z,69.70
2023-10-13T22:52:02.016Z,45.90
2023-10-13T22:54:30.821Z,78.10
2023-10-13T22:56:59.026Z,67.00
2023-10-13T22:59:28.574Z,74.30
2023-10-13T23:02:00.302Z,78.80
2023-10-13T23:04:29.042Z,68.10
2023-10-13T23:06:59.661Z,72.20
2023-10-13T23:09:28.005Z,70.40
2023-10-13T23:11:57.679Z,63.30
2023-10-13T23:14:26.838Z,63.90
2023-10-13T23:16:55.048Z,63.30
2023-10-13T23:19:26.127Z,146.20
2023-10-13T23:21:55.684Z,174.10
2023-10-13T23:24:24.498Z,336.30
2023-10-13T23:26:52.413Z,280.10
2023-10-13T23:29:20.360Z,205.10
2023-10-13T23:31:48.964Z,336.10
2023-10-13T23:34:18.124Z,164.70
2023-10-13T23:36:46.285Z,145.50
2023-10-13T23:39:18.196Z,81.90
2023-10-13T23:41:46.118Z,89.70
2023-10-13T23:44:16.787Z,81.80
2023-10-13T23:46:44.996Z,82.50
2023-10-13T23:49:20.808Z,89.90
2023-10-13T23:51:55.024Z,67.20
2023-10-13T23:54:23.600Z,71.00
2023-10-13T23:56:53.434Z,171.70
2023-10-13T23:59:30.452Z,126.20
